sensor_id;sensor_type;location;lat;lon;timestamp;P1;durP1;ratioP1;P2;durP2;ratioP2
17347;SDS011;8791;50.876;4.342;2022-11-25T00:01:30;16.20;;;3.83;;
17347;SDS011;8791;50.876;4.342;2022-11-25T00:03:58;21.73;;;3.63;;
17347;SDS011;8791;50.876;4.342;2022-11-25T00:06:26;18.00;;;3.67;;
17347;SDS011;8791;50.876;4.342;2022-11-25T00:08:54;17.50;;;3.73;;
17347;SDS011;8791;50.876;4.342;2022-11-25T00:11:23;32.97;;;6.20;;
17347;SDS011;8791;50.876;4.342;2022-11-25T00:13:51;22.37;;;4.30;;
17347;SDS011;8791;50.876;4.342;2022-11-25T00:16:20;22.53;;;3.30;;
17347;SDS011;8791;50.876;4.342;2022-11-25T00:18:48;18.97;;;2.90;;
17347;SDS011;8791;50.876;4.342;2022-11-25T00:21:16;18.77;;;3.47;;
17347;SDS011;8791;50.876;4.342;2022-11-25T00:23:48;15.17;;;3.33;;
17347;SDS011;8791;50.876;4.342;2022-11-25T00:26:16;18.57;;;3.53;;
17347;SDS011;8791;50.876;4.342;2022-11-25T00:28:43;20.40;;;2.87;;
17347;SDS011;8791;50.876;4.342;2022-11-25T00:31:14;19.47;;;3.50;;
17347;SDS011;8791;50.876;4.342;2022-11-25T00:33:42;11.60;;;2.50;;
17347;SDS011;8791;50.876;4.342;2022-11-25T00:36:13;12.77;;;2.30;;
17347;SDS011;8791;50.876;4.342;2022-11-25T00:38:41;6.73;;;1.90;;
17347;SDS011;8791;50.876;4.342;2022-11-25T00:41:08;12.53;;;2.07;;
17347;SDS011;8791;50.876;4.342;2022-11-25T00:43:53;3.33;;;1.33;;
17347;SDS011;8791;50.876;4.342;2022-11-25T00:46:38;4.00;;;1.47;;
17347;SDS011;8791;50.876;4.342;2022-11-25T00:49:05;3.97;;;1.00;;
17347;SDS011;8791;50.876;4.342;2022-11-25T00:51:32;8.17;;;1.30;;
17347;SDS011;8791;50.876;4.342;2022-11-25T00:53:59;6.30;;;1.23;;
17347;SDS011;8791;50.876;4.342;2022-11-25T00:56:26;2.93;;;0.93;;
17347;SDS011;8791;50.876;4.342;2022-11-25T00:58:54;3.40;;;0.90;;
17347;SDS011;8791;50.876;4.342;2022-11-25T01:01:21;2.27;;;1.13;;
17347;SDS011;8791;50.876;4.342;2022-11-25T01:03:49;6.30;;;1.20;;
17347;SDS011;8791;50.876;4.342;2022-11-25T01:06:17;3.47;;;1.00;;
17347;SDS011;8791;50.876;4.342;2022-11-25T01:08:44;3.77;;;1.10;;
17347;SDS011;8791;50.876;4.342;2022-11-25T01:11:12;4.37;;;1.20;;
17347;SDS011;8791;50.876;4.342;2022-11-25T01:13:40;4.03;;;1.10;;
17347;SDS011;8791;50.876;4.342;2022-11-25T01:16:08;6.27;;;1.13;;
17347;SDS011;8791;50.876;4.342;2022-11-25T01:18:37;5.93;;;1.50;;
17347;SDS011;8791;50.876;4.342;2022-11-25T01:21:06;2.33;;;1.17;;
17347;SDS011;8791;50.876;4.342;2022-11-25T01:23:34;3.13;;;1.50;;
17347;SDS011;8791;50.876;4.342;2022-11-25T01:26:01;3.93;;;1.40;;
17347;SDS011;8791;50.876;4.342;2022-11-25T01:28:29;5.87;;;1.33;;
17347;SDS011;8791;50.876;4.342;2022-11-25T01:31:00;1.97;;;1.10;;
17347;SDS011;8791;50.876;4.342;2022-11-25T01:33:27;3.80;;;1.03;;
17347;SDS011;8791;50.876;4.342;2022-11-25T01:35:56;2.23;;;0.90;;
17347;SDS011;8791;50.876;4.342;2022-11-25T01:38:26;2.93;;;1.07;;
17347;SDS011;8791;50.876;4.342;2022-11-25T01:40:53;1.90;;;1.00;;
17347;SDS011;8791;50.876;4.342;2022-11-25T01:43:20;3.03;;;1.60;;
17347;SDS011;8791;50.876;4.342;2022-11-25T01:45:47;7.87;;;1.30;;
17347;SDS011;8791;50.876;4.342;2022-11-25T01:48:15;5.60;;;1.60;;
17347;SDS011;8791;50.876;4.342;2022-11-25T01:50:45;4.33;;;1.80;;
17347;SDS011;8791;50.876;4.342;2022-11-25T01:53:13;7.33;;;1.37;;
17347;SDS011;8791;50.876;4.342;2022-11-25T01:55:46;3.43;;;1.23;;
17347;SDS011;8791;50.876;4.342;2022-11-25T01:58:17;2.27;;;1.23;;
17347;SDS011;8791;50.876;4.342;2022-11-25T02:00:47;1.20;;;0.90;;
17347;SDS011;8791;50.876;4.342;2022-11-25T02:03:17;4.10;;;1.17;;
17347;SDS011;8791;50.876;4.342;2022-11-25T02:05:48;3.73;;;1.03;;
17347;SDS011;8791;50.876;4.342;2022-11-25T02:08:22;2.47;;;0.93;;
17347;SDS011;8791;50.876;4.342;2022-11-25T02:10:51;2.83;;;0.90;;
17347;SDS011;8791;50.876;4.342;2022-11-25T02:13:20;6.60;;;1.10;;
17347;SDS011;8791;50.876;4.342;2022-11-25T02:15:48;2.30;;;1.10;;
17347;SDS011;8791;50.876;4.342;2022-11-25T02:18:15;3.67;;;1.10;;
17347;SDS011;8791;50.876;4.342;2022-11-25T02:20:42;1.70;;;0.90;;
17347;SDS011;8791;50.876;4.342;2022-11-25T02:23:11;2.30;;;1.03;;
17347;SDS011;8791;50.876;4.342;2022-11-25T02:25:47;5.57;;;1.30;;
17347;SDS011;8791;50.876;4.342;2022-11-25T02:28:15;1.60;;;1.03;;
17347;SDS011;8791;50.876;4.342;2022-11-25T02:30:44;2.37;;;1.07;;
17347;SDS011;8791;50.876;4.342;2022-11-25T02:33:11;2.17;;;1.10;;
17347;SDS011;8791;50.876;4.342;2022-11-25T02:35:39;3.57;;;1.10;;
17347;SDS011;8791;50.876;4.342;2022-11-25T02:38:08;3.97;;;1.10;;
17347;SDS011;8791;50.876;4.342;2022-11-25T02:40:39;3.40;;;1.10;;
17347;SDS011;8791;50.876;4.342;2022-11-25T02:43:11;2.77;;;1.07;;
17347;SDS011;8791;50.876;4.342;2022-11-25T02:45:41;3.03;;;1.13;;
17347;SDS011;8791;50.876;4.342;2022-11-25T02:48:14;4.37;;;0.97;;
17347;SDS011;8791;50.876;4.342;2022-11-25T02:50:41;2.60;;;1.00;;
17347;SDS011;8791;50.876;4.342;2022-11-25T02:53:08;2.63;;;1.10;;
17347;SDS011;8791;50.876;4.342;2022-11-25T02:55:35;2.90;;;1.03;;
17347;SDS011;8791;50.876;4.342;2022-11-25T02:58:02;3.53;;;1.40;;
17347;SDS011;8791;50.876;4.342;2022-11-25T03:00:30;7.87;;;1.17;;
17347;SDS011;8791;50.876;4.342;2022-11-25T03:02:57;3.13;;;1.07;;
17347;SDS011;8791;50.876;4.342;2022-11-25T03:05:24;2.87;;;1.10;;
17347;SDS011;8791;50.876;4.342;2022-11-25T03:07:51;7.80;;;1.00;;
17347;SDS011;8791;50.876;4.342;2022-11-25T03:10:17;6.27;;;1.67;;
17347;SDS011;8791;50.876;4.342;2022-11-25T03:12:45;3.10;;;1.47;;
17347;SDS011;8791;50.876;4.342;2022-11-25T03:15:11;3.27;;;1.10;;
17347;SDS011;8791;50.876;4.342;2022-11-25T03:17:40;9.50;;;1.50;;
17347;SDS011;8791;50.876;4.342;2022-11-25T03:20:07;5.00;;;1.53;;
17347;SDS011;8791;50.876;4.342;2022-11-25T03:22:36;3.10;;;1.23;;
17347;SDS011;8791;50.876;4.342;2022-11-25T03:25:03;4.67;;;1.57;;
17347;SDS011;8791;50.876;4.342;2022-11-25T03:27:32;11.23;;;1.80;;
17347;SDS011;8791;50.876;4.342;2022-11-25T03:29:59;6.00;;;1.60;;
17347;SDS011;8791;50.876;4.342;2022-11-25T03:32:26;6.87;;;1.83;;
17347;SDS011;8791;50.876;4.342;2022-11-25T03:34:54;7.90;;;1.80;;
17347;SDS011;8791;50.876;4.342;2022-11-25T03:37:21;8.03;;;1.97;;
17347;SDS011;8791;50.876;4.342;2022-11-25T03:39:48;9.90;;;2.10;;
17347;SDS011;8791;50.876;4.342;2022-11-25T03:42:15;6.70;;;2.37;;
17347;SDS011;8791;50.876;4.342;2022-11-25T03:44:42;11.03;;;2.50;;
17347;SDS011;8791;50.876;4.342;2022-11-25T03:47:08;6.03;;;2.13;;
17347;SDS011;8791;50.876;4.342;2022-11-25T03:49:35;10.07;;;2.00;;
17347;SDS011;8791;50.876;4.342;2022-11-25T03:52:03;11.13;;;2.60;;
17347;SDS011;8791;50.876;4.342;2022-11-25T03:54:30;11.27;;;2.50;;
17347;SDS011;8791;50.876;4.342;2022-11-25T03:56:57;13.63;;;2.50;;
17347;SDS011;8791;50.876;4.342;2022-11-25T03:59:24;11.13;;;2.57;;
17347;SDS011;8791;50.876;4.342;2022-11-25T04:01:51;12.27;;;2.50;;
17347;SDS011;8791;50.876;4.342;2022-11-25T04:04:18;11.63;;;2.50;;
17347;SDS011;8791;50.876;4.342;2022-11-25T04:06:44;11.37;;;2.10;;
17347;SDS011;8791;50.876;4.342;2022-11-25T04:09:12;8.03;;;3.00;;
17347;SDS011;8791;50.876;4.342;2022-11-25T04:11:39;8.40;;;2.67;;
17347;SDS011;8791;50.876;4.342;2022-11-25T04:14:24;11.67;;;3.33;;
17347;SDS011;8791;50.876;4.342;2022-11-25T04:16:51;13.50;;;2.60;;
17347;SDS011;8791;50.876;4.342;2022-11-25T04:19:17;6.97;;;2.40;;
17347;SDS011;8791;50.876;4.342;2022-11-25T04:21:44;19.00;;;2.47;;
17347;SDS011;8791;50.876;4.342;2022-11-25T04:24:12;11.73;;;2.80;;
17347;SDS011;8791;50.876;4.342;2022-11-25T04:26:39;8.20;;;2.60;;
17347;SDS011;8791;50.876;4.342;2022-11-25T04:29:06;15.63;;;2.87;;
17347;SDS011;8791;50.876;4.342;2022-11-25T04:31:33;10.33;;;2.60;;
17347;SDS011;8791;50.876;4.342;2022-11-25T04:34:01;9.33;;;2.53;;
17347;SDS011;8791;50.876;4.342;2022-11-25T04:36:28;10.57;;;2.37;;
17347;SDS011;8791;50.876;4.342;2022-11-25T04:38:56;14.13;;;3.20;;
17347;SDS011;8791;50.876;4.342;2022-11-25T04:41:24;14.67;;;2.50;;
17347;SDS011;8791;50.876;4.342;2022-11-25T04:43:51;10.90;;;2.50;;
17347;SDS011;8791;50.876;4.342;2022-11-25T04:46:18;9.83;;;2.90;;
17347;SDS011;8791;50.876;4.342;2022-11-25T04:48:49;11.00;;;3.00;;
17347;SDS011;8791;50.876;4.342;2022-11-25T04:51:16;9.63;;;2.43;;
17347;SDS011;8791;50.876;4.342;2022-11-25T04:53:43;10.07;;;3.10;;
17347;SDS011;8791;50.876;4.342;2022-11-25T04:56:10;12.63;;;2.90;;
17347;SDS011;8791;50.876;4.342;2022-11-25T04:58:44;9.70;;;2.60;;
17347;SDS011;8791;50.876;4.342;2022-11-25T05:01:28;12.17;;;3.33;;
17347;SDS011;8791;50.876;4.342;2022-11-25T05:03:55;15.40;;;2.93;;
17347;SDS011;8791;50.876;4.342;2022-11-25T05:06:22;6.57;;;2.07;;
17347;SDS011;8791;50.876;4.342;2022-11-25T05:08:49;12.03;;;2.83;;
17347;SDS011;8791;50.876;4.342;2022-11-25T05:11:16;11.23;;;2.77;;
17347;SDS011;8791;50.876;4.342;2022-11-25T05:13:44;14.23;;;2.87;;
17347;SDS011;8791;50.876;4.342;2022-11-25T05:16:11;9.30;;;2.20;;
17347;SDS011;8791;50.876;4.342;2022-11-25T05:18:38;14.00;;;2.20;;
17347;SDS011;8791;50.876;4.342;2022-11-25T05:21:05;10.40;;;2.70;;
17347;SDS011;8791;50.876;4.342;2022-11-25T05:23:32;10.20;;;2.93;;
17347;SDS011;8791;50.876;4.342;2022-11-25T05:25:59;11.33;;;2.63;;
17347;SDS011;8791;50.876;4.342;2022-11-25T05:28:26;9.90;;;2.37;;
17347;SDS011;8791;50.876;4.342;2022-11-25T05:30:55;10.27;;;2.80;;
17347;SDS011;8791;50.876;4.342;2022-11-25T05:33:22;10.13;;;2.83;;
17347;SDS011;8791;50.876;4.342;2022-11-25T05:35:53;6.97;;;1.90;;
17347;SDS011;8791;50.876;4.342;2022-11-25T05:38:21;18.87;;;3.17;;
17347;SDS011;8791;50.876;4.342;2022-11-25T05:40:48;8.23;;;2.03;;
17347;SDS011;8791;50.876;4.342;2022-11-25T05:43:15;11.23;;;2.47;;
17347;SDS011;8791;50.876;4.342;2022-11-25T05:45:42;14.37;;;3.10;;
17347;SDS011;8791;50.876;4.342;2022-11-25T05:48:10;6.57;;;2.00;;
17347;SDS011;8791;50.876;4.342;2022-11-25T05:50:37;12.97;;;2.47;;
17347;SDS011;8791;50.876;4.342;2022-11-25T05:53:04;13.27;;;2.80;;
17347;SDS011;8791;50.876;4.342;2022-11-25T05:55:31;8.17;;;2.40;;
17347;SDS011;8791;50.876;4.342;2022-11-25T05:57:58;11.83;;;2.73;;
17347;SDS011;8791;50.876;4.342;2022-11-25T06:00:27;10.80;;;2.60;;
17347;SDS011;8791;50.876;4.342;2022-11-25T06:02:54;4.87;;;2.40;;
17347;SDS011;8791;50.876;4.342;2022-11-25T06:05:22;9.83;;;2.80;;
17347;SDS011;8791;50.876;4.342;2022-11-25T06:07:49;7.70;;;2.57;;
17347;SDS011;8791;50.876;4.342;2022-11-25T06:10:17;14.93;;;2.77;;
17347;SDS011;8791;50.876;4.342;2022-11-25T06:12:44;12.53;;;3.43;;
17347;SDS011;8791;50.876;4.342;2022-11-25T06:15:11;15.50;;;2.80;;
17347;SDS011;8791;50.876;4.342;2022-11-25T06:17:39;9.70;;;2.43;;
17347;SDS011;8791;50.876;4.342;2022-11-25T06:20:07;18.43;;;3.43;;
17347;SDS011;8791;50.876;4.342;2022-11-25T06:22:35;15.87;;;3.33;;
17347;SDS011;8791;50.876;4.342;2022-11-25T06:25:02;12.47;;;3.23;;
17347;SDS011;8791;50.876;4.342;2022-11-25T06:27:30;8.57;;;2.40;;
17347;SDS011;8791;50.876;4.342;2022-11-25T06:29:57;9.17;;;2.43;;
17347;SDS011;8791;50.876;4.342;2022-11-25T06:32:24;13.97;;;3.03;;
17347;SDS011;8791;50.876;4.342;2022-11-25T06:34:50;13.30;;;2.93;;
17347;SDS011;8791;50.876;4.342;2022-11-25T06:37:17;13.53;;;3.40;;
17347;SDS011;8791;50.876;4.342;2022-11-25T06:39:45;11.60;;;3.17;;
17347;SDS011;8791;50.876;4.342;2022-11-25T06:42:12;8.70;;;2.73;;
17347;SDS011;8791;50.876;4.342;2022-11-25T06:44:39;7.50;;;2.60;;
17347;SDS011;8791;50.876;4.342;2022-11-25T06:47:06;14.50;;;3.13;;
17347;SDS011;8791;50.876;4.342;2022-11-25T06:49:33;9.23;;;3.00;;
17347;SDS011;8791;50.876;4.342;2022-11-25T06:51:59;12.20;;;2.80;;
17347;SDS011;8791;50.876;4.342;2022-11-25T06:54:26;13.80;;;3.10;;
17347;SDS011;8791;50.876;4.342;2022-11-25T06:56:54;18.17;;;3.23;;
17347;SDS011;8791;50.876;4.342;2022-11-25T06:59:21;15.97;;;3.00;;
17347;SDS011;8791;50.876;4.342;2022-11-25T07:01:48;12.63;;;2.57;;
17347;SDS011;8791;50.876;4.342;2022-11-25T07:04:15;10.83;;;2.50;;
17347;SDS011;8791;50.876;4.342;2022-11-25T07:06:42;11.37;;;2.93;;
17347;SDS011;8791;50.876;4.342;2022-11-25T07:09:09;9.37;;;2.97;;
17347;SDS011;8791;50.876;4.342;2022-11-25T07:11:36;19.90;;;3.67;;
17347;SDS011;8791;50.876;4.342;2022-11-25T07:14:08;18.60;;;3.47;;
17347;SDS011;8791;50.876;4.342;2022-11-25T07:16:37;13.37;;;3.47;;
17347;SDS011;8791;50.876;4.342;2022-11-25T07:19:04;14.90;;;3.00;;
17347;SDS011;8791;50.876;4.342;2022-11-25T07:21:32;9.07;;;2.80;;
17347;SDS011;8791;50.876;4.342;2022-11-25T07:24:00;14.00;;;3.70;;
17347;SDS011;8791;50.876;4.342;2022-11-25T07:26:29;18.17;;;3.43;;
17347;SDS011;8791;50.876;4.342;2022-11-25T07:29:00;12.70;;;3.27;;
17347;SDS011;8791;50.876;4.342;2022-11-25T07:31:30;20.57;;;3.57;;
17347;SDS011;8791;50.876;4.342;2022-11-25T07:33:59;14.60;;;3.37;;
17347;SDS011;8791;50.876;4.342;2022-11-25T07:36:27;15.07;;;3.37;;
17347;SDS011;8791;50.876;4.342;2022-11-25T07:38:56;14.83;;;4.60;;
17347;SDS011;8791;50.876;4.342;2022-11-25T07:41:24;9.73;;;3.23;;
17347;SDS011;8791;50.876;4.342;2022-11-25T07:43:53;10.33;;;3.10;;
17347;SDS011;8791;50.876;4.342;2022-11-25T07:46:21;17.33;;;3.63;;
17347;SDS011;8791;50.876;4.342;2022-11-25T07:48:52;22.80;;;3.17;;
17347;SDS011;8791;50.876;4.342;2022-11-25T07:51:21;18.33;;;3.20;;
17347;SDS011;8791;50.876;4.342;2022-11-25T07:53:49;13.60;;;3.47;;
17347;SDS011;8791;50.876;4.342;2022-11-25T07:56:17;22.30;;;3.10;;
17347;SDS011;8791;50.876;4.342;2022-11-25T07:58:45;20.30;;;4.37;;
17347;SDS011;8791;50.876;4.342;2022-11-25T08:01:12;18.50;;;3.50;;
17347;SDS011;8791;50.876;4.342;2022-11-25T08:03:41;11.97;;;3.37;;
17347;SDS011;8791;50.876;4.342;2022-11-25T08:06:10;18.87;;;3.87;;
17347;SDS011;8791;50.876;4.342;2022-11-25T08:08:39;16.13;;;3.60;;
17347;SDS011;8791;50.876;4.342;2022-11-25T08:11:07;18.93;;;3.60;;
17347;SDS011;8791;50.876;4.342;2022-11-25T08:13:36;15.83;;;3.43;;
17347;SDS011;8791;50.876;4.342;2022-11-25T08:16:03;19.10;;;3.73;;
17347;SDS011;8791;50.876;4.342;2022-11-25T08:18:31;16.00;;;3.87;;
17347;SDS011;8791;50.876;4.342;2022-11-25T08:20:58;14.50;;;2.93;;
17347;SDS011;8791;50.876;4.342;2022-11-25T08:23:27;19.63;;;3.20;;
17347;SDS011;8791;50.876;4.342;2022-11-25T08:25:54;19.67;;;3.90;;
17347;SDS011;8791;50.876;4.342;2022-11-25T08:28:21;17.57;;;4.03;;
17347;SDS011;8791;50.876;4.342;2022-11-25T08:30:47;16.33;;;3.40;;
17347;SDS011;8791;50.876;4.342;2022-11-25T08:33:14;10.17;;;2.97;;
17347;SDS011;8791;50.876;4.342;2022-11-25T08:35:41;13.87;;;3.80;;
17347;SDS011;8791;50.876;4.342;2022-11-25T08:38:09;14.23;;;3.80;;
17347;SDS011;8791;50.876;4.342;2022-11-25T08:40:42;14.27;;;3.60;;
17347;SDS011;8791;50.876;4.342;2022-11-25T08:43:09;24.73;;;4.47;;
17347;SDS011;8791;50.876;4.342;2022-11-25T08:45:37;17.80;;;3.83;;
17347;SDS011;8791;50.876;4.342;2022-11-25T08:48:05;16.20;;;3.97;;
17347;SDS011;8791;50.876;4.342;2022-11-25T08:50:32;15.23;;;4.30;;
17347;SDS011;8791;50.876;4.342;2022-11-25T08:52:59;27.03;;;4.13;;
17347;SDS011;8791;50.876;4.342;2022-11-25T08:55:26;24.73;;;4.33;;
17347;SDS011;8791;50.876;4.342;2022-11-25T08:57:55;14.27;;;3.77;;
17347;SDS011;8791;50.876;4.342;2022-11-25T09:00:22;15.67;;;3.40;;
17347;SDS011;8791;50.876;4.342;2022-11-25T09:02:48;20.57;;;5.10;;
17347;SDS011;8791;50.876;4.342;2022-11-25T09:05:16;22.30;;;4.30;;
17347;SDS011;8791;50.876;4.342;2022-11-25T09:07:42;13.53;;;3.77;;
17347;SDS011;8791;50.876;4.342;2022-11-25T09:10:12;15.17;;;4.20;;
17347;SDS011;8791;50.876;4.342;2022-11-25T09:12:40;17.80;;;4.23;;
17347;SDS011;8791;50.876;4.342;2022-11-25T09:15:09;21.03;;;6.63;;
17347;SDS011;8791;50.876;4.342;2022-11-25T09:17:36;19.13;;;3.50;;
17347;SDS011;8791;50.876;4.342;2022-11-25T09:20:04;10.90;;;2.67;;
17347;SDS011;8791;50.876;4.342;2022-11-25T09:22:31;9.77;;;2.63;;
17347;SDS011;8791;50.876;4.342;2022-11-25T09:24:58;16.97;;;3.30;;
17347;SDS011;8791;50.876;4.342;2022-11-25T09:27:25;8.57;;;2.50;;
17347;SDS011;8791;50.876;4.342;2022-11-25T09:29:51;14.77;;;7.20;;
17347;SDS011;8791;50.876;4.342;2022-11-25T09:32:20;13.77;;;3.17;;
17347;SDS011;8791;50.876;4.342;2022-11-25T09:34:47;8.63;;;3.03;;
17347;SDS011;8791;50.876;4.342;2022-11-25T09:37:13;18.27;;;4.07;;
17347;SDS011;8791;50.876;4.342;2022-11-25T09:39:40;13.07;;;3.50;;
17347;SDS011;8791;50.876;4.342;2022-11-25T09:42:12;9.73;;;3.20;;
17347;SDS011;8791;50.876;4.342;2022-11-25T09:45:09;16.20;;;3.67;;
17347;SDS011;8791;50.876;4.342;2022-11-25T09:48:05;15.93;;;3.30;;
17347;SDS011;8791;50.876;4.342;2022-11-25T09:50:49;16.43;;;3.80;;
17347;SDS011;8791;50.876;4.342;2022-11-25T09:53:28;10.83;;;3.00;;
17347;SDS011;8791;50.876;4.342;2022-11-25T09:56:09;13.80;;;4.57;;
17347;SDS011;8791;50.876;4.342;2022-11-25T09:58:43;17.13;;;3.73;;
17347;SDS011;8791;50.876;4.342;2022-11-25T10:01:16;10.50;;;3.47;;
17347;SDS011;8791;50.876;4.342;2022-11-25T10:03:48;6.97;;;2.43;;
17347;SDS011;8791;50.876;4.342;2022-11-25T10:06:19;12.10;;;3.90;;
17347;SDS011;8791;50.876;4.342;2022-11-25T10:08:49;11.00;;;3.07;;
17347;SDS011;8791;50.876;4.342;2022-11-25T10:11:20;9.23;;;3.30;;
17347;SDS011;8791;50.876;4.342;2022-11-25T10:13:53;16.10;;;3.23;;
17347;SDS011;8791;50.876;4.342;2022-11-25T10:16:32;9.90;;;3.63;;
17347;SDS011;8791;50.876;4.342;2022-11-25T10:19:09;12.43;;;5.23;;
17347;SDS011;8791;50.876;4.342;2022-11-25T10:21:40;18.80;;;4.30;;
17347;SDS011;8791;50.876;4.342;2022-11-25T10:24:10;38.40;;;11.97;;
17347;SDS011;8791;50.876;4.342;2022-11-25T10:26:39;23.23;;;7.83;;
17347;SDS011;8791;50.876;4.342;2022-11-25T10:29:19;23.20;;;6.07;;
17347;SDS011;8791;50.876;4.342;2022-11-25T10:31:50;16.53;;;5.27;;
17347;SDS011;8791;50.876;4.342;2022-11-25T10:34:25;15.57;;;4.10;;
17347;SDS011;8791;50.876;4.342;2022-11-25T10:36:59;17.00;;;6.43;;
17347;SDS011;8791;50.876;4.342;2022-11-25T10:39:30;19.63;;;7.07;;
17347;SDS011;8791;50.876;4.342;2022-11-25T10:42:00;24.50;;;7.47;;
17347;SDS011;8791;50.876;4.342;2022-11-25T10:44:32;25.13;;;8.73;;
17347;SDS011;8791;50.876;4.342;2022-11-25T10:47:03;19.77;;;9.30;;
17347;SDS011;8791;50.876;4.342;2022-11-25T10:49:43;19.73;;;7.40;;
17347;SDS011;8791;50.876;4.342;2022-11-25T10:52:19;11.73;;;3.73;;
17347;SDS011;8791;50.876;4.342;2022-11-25T10:54:54;15.83;;;3.90;;
17347;SDS011;8791;50.876;4.342;2022-11-25T10:57:24;14.90;;;5.63;;
17347;SDS011;8791;50.876;4.342;2022-11-25T10:59:54;12.53;;;4.03;;
17347;SDS011;8791;50.876;4.342;2022-11-25T11:02:23;20.10;;;5.50;;
17347;SDS011;8791;50.876;4.342;2022-11-25T11:04:54;19.30;;;5.70;;
17347;SDS011;8791;50.876;4.342;2022-11-25T11:07:23;23.80;;;9.93;;
17347;SDS011;8791;50.876;4.342;2022-11-25T11:09:51;26.87;;;9.63;;
17347;SDS011;8791;50.876;4.342;2022-11-25T11:12:20;35.40;;;13.40;;
17347;SDS011;8791;50.876;4.342;2022-11-25T11:14:48;17.83;;;6.60;;
17347;SDS011;8791;50.876;4.342;2022-11-25T11:17:25;19.30;;;6.43;;
17347;SDS011;8791;50.876;4.342;2022-11-25T11:20:12;21.87;;;8.23;;
17347;SDS011;8791;50.876;4.342;2022-11-25T11:22:50;13.07;;;7.50;;
17347;SDS011;8791;50.876;4.342;2022-11-25T11:25:25;17.53;;;5.70;;
17347;SDS011;8791;50.876;4.342;2022-11-25T11:27:54;10.63;;;2.90;;
17347;SDS011;8791;50.876;4.342;2022-11-25T11:30:22;16.23;;;3.67;;
17347;SDS011;8791;50.876;4.342;2022-11-25T11:32:54;13.63;;;3.43;;
17347;SDS011;8791;50.876;4.342;2022-11-25T11:35:26;15.53;;;3.53;;
17347;SDS011;8791;50.876;4.342;2022-11-25T11:38:11;15.30;;;3.77;;
17347;SDS011;8791;50.876;4.342;2022-11-25T11:40:45;15.23;;;3.60;;
17347;SDS011;8791;50.876;4.342;2022-11-25T11:43:22;13.00;;;3.17;;
17347;SDS011;8791;50.876;4.342;2022-11-25T11:46:04;22.10;;;5.13;;
17347;SDS011;8791;50.876;4.342;2022-11-25T11:48:48;14.83;;;3.57;;
17347;SDS011;8791;50.876;4.342;2022-11-25T11:51:25;18.07;;;3.47;;
17347;SDS011;8791;50.876;4.342;2022-11-25T11:53:59;10.47;;;3.90;;
17347;SDS011;8791;50.876;4.342;2022-11-25T11:56:34;23.20;;;4.67;;
17347;SDS011;8791;50.876;4.342;2022-11-25T12:02:02;8.67;;;2.40;;
17347;SDS011;8791;50.876;4.342;2022-11-25T12:04:40;16.07;;;3.10;;
17347;SDS011;8791;50.876;4.342;2022-11-25T12:07:13;14.87;;;4.37;;
17347;SDS011;8791;50.876;4.342;2022-11-25T12:09:46;17.23;;;3.93;;
17347;SDS011;8791;50.876;4.342;2022-11-25T12:12:18;19.50;;;3.80;;
17347;SDS011;8791;50.876;4.342;2022-11-25T12:14:49;12.67;;;2.90;;
17347;SDS011;8791;50.876;4.342;2022-11-25T12:17:24;19.33;;;3.90;;
17347;SDS011;8791;50.876;4.342;2022-11-25T12:19:55;11.57;;;3.00;;
17347;SDS011;8791;50.876;4.342;2022-11-25T12:22:31;13.93;;;2.80;;
17347;SDS011;8791;50.876;4.342;2022-11-25T12:25:03;12.90;;;3.43;;
17347;SDS011;8791;50.876;4.342;2022-11-25T12:27:36;15.50;;;3.47;;
17347;SDS011;8791;50.876;4.342;2022-11-25T12:30:06;21.57;;;4.47;;
17347;SDS011;8791;50.876;4.342;2022-11-25T12:32:43;14.50;;;3.73;;
17347;SDS011;8791;50.876;4.342;2022-11-25T12:35:18;23.57;;;4.63;;
17347;SDS011;8791;50.876;4.342;2022-11-25T12:37:53;14.57;;;4.30;;
17347;SDS011;8791;50.876;4.342;2022-11-25T12:40:28;28.13;;;4.80;;
17347;SDS011;8791;50.876;4.342;2022-11-25T12:43:01;18.57;;;3.83;;
17347;SDS011;8791;50.876;4.342;2022-11-25T12:45:36;19.53;;;3.90;;
17347;SDS011;8791;50.876;4.342;2022-11-25T12:48:06;17.13;;;3.93;;
17347;SDS011;8791;50.876;4.342;2022-11-25T12:50:37;29.83;;;7.50;;
17347;SDS011;8791;50.876;4.342;2022-11-25T12:53:15;18.20;;;5.20;;
17347;SDS011;8791;50.876;4.342;2022-11-25T12:55:48;22.70;;;3.77;;
17347;SDS011;8791;50.876;4.342;2022-11-25T12:58:32;20.30;;;4.40;;
17347;SDS011;8791;50.876;4.342;2022-11-25T13:01:17;15.00;;;3.40;;
17347;SDS011;8791;50.876;4.342;2022-11-25T13:12:53;23.93;;;3.97;;
17347;SDS011;8791;50.876;4.342;2022-11-25T13:15:31;20.40;;;3.40;;
17347;SDS011;8791;50.876;4.342;2022-11-25T13:18:07;13.73;;;3.30;;
17347;SDS011;8791;50.876;4.342;2022-11-25T13:20:47;12.13;;;3.60;;
17347;SDS011;8791;50.876;4.342;2022-11-25T13:23:22;14.87;;;3.73;;
17347;SDS011;8791;50.876;4.342;2022-11-25T13:25:51;18.40;;;4.03;;
17347;SDS011;8791;50.876;4.342;2022-11-25T13:28:39;22.50;;;4.00;;
17347;SDS011;8791;50.876;4.342;2022-11-25T13:31:16;21.90;;;3.40;;
17347;SDS011;8791;50.876;4.342;2022-11-25T13:33:57;18.93;;;3.57;;
17347;SDS011;8791;50.876;4.342;2022-11-25T13:36:45;17.13;;;4.13;;
17347;SDS011;8791;50.876;4.342;2022-11-25T13:39:13;19.77;;;4.10;;
17347;SDS011;8791;50.876;4.342;2022-11-25T13:41:46;20.30;;;4.63;;
17347;SDS011;8791;50.876;4.342;2022-11-25T13:44:20;20.40;;;3.30;;
17347;SDS011;8791;50.876;4.342;2022-11-25T13:46:56;22.00;;;3.50;;
17347;SDS011;8791;50.876;4.342;2022-11-25T13:49:33;22.93;;;4.30;;
17347;SDS011;8791;50.876;4.342;2022-11-25T13:52:22;24.37;;;4.30;;
17347;SDS011;8791;50.876;4.342;2022-11-25T13:54:56;15.83;;;4.33;;
17347;SDS011;8791;50.876;4.342;2022-11-25T13:57:25;32.83;;;6.13;;
17347;SDS011;8791;50.876;4.342;2022-11-25T13:59:56;17.97;;;3.83;;
17347;SDS011;8791;50.876;4.342;2022-11-25T14:02:34;13.00;;;3.33;;
17347;SDS011;8791;50.876;4.342;2022-11-25T14:08:06;25.67;;;3.70;;
17347;SDS011;8791;50.876;4.342;2022-11-25T14:10:43;19.53;;;3.73;;
17347;SDS011;8791;50.876;4.342;2022-11-25T14:16:24;16.33;;;3.30;;
17347;SDS011;8791;50.876;4.342;2022-11-25T14:19:15;17.77;;;4.20;;
17347;SDS011;8791;50.876;4.342;2022-11-25T14:22:05;21.40;;;3.67;;
17347;SDS011;8791;50.876;4.342;2022-11-25T14:24:43;17.03;;;3.60;;
17347;SDS011;8791;50.876;4.342;2022-11-25T14:27:14;24.00;;;3.97;;
17347;SDS011;8791;50.876;4.342;2022-11-25T14:29:42;15.30;;;3.60;;
17347;SDS011;8791;50.876;4.342;2022-11-25T14:32:17;24.33;;;5.23;;
17347;SDS011;8791;50.876;4.342;2022-11-25T14:34:47;19.90;;;6.53;;
17347;SDS011;8791;50.876;4.342;2022-11-25T14:37:19;20.53;;;5.17;;
17347;SDS011;8791;50.876;4.342;2022-11-25T14:39:51;29.67;;;5.63;;
17347;SDS011;8791;50.876;4.342;2022-11-25T14:42:22;20.63;;;4.83;;
17347;SDS011;8791;50.876;4.342;2022-11-25T14:44:53;23.70;;;5.43;;
17347;SDS011;8791;50.876;4.342;2022-11-25T14:47:24;24.90;;;4.30;;
17347;SDS011;8791;50.876;4.342;2022-11-25T14:49:52;20.03;;;4.00;;
17347;SDS011;8791;50.876;4.342;2022-11-25T14:52:21;18.07;;;3.50;;
17347;SDS011;8791;50.876;4.342;2022-11-25T14:54:51;28.67;;;4.73;;
17347;SDS011;8791;50.876;4.342;2022-11-25T14:57:20;20.53;;;3.97;;
17347;SDS011;8791;50.876;4.342;2022-11-25T14:59:49;24.83;;;5.00;;
17347;SDS011;8791;50.876;4.342;2022-11-25T15:02:25;29.30;;;5.10;;
17347;SDS011;8791;50.876;4.342;2022-11-25T15:05:00;21.77;;;4.17;;
17347;SDS011;8791;50.876;4.342;2022-11-25T15:07:33;26.67;;;5.93;;
17347;SDS011;8791;50.876;4.342;2022-11-25T15:10:00;30.80;;;5.53;;
17347;SDS011;8791;50.876;4.342;2022-11-25T15:12:29;27.30;;;5.00;;
17347;SDS011;8791;50.876;4.342;2022-11-25T15:14:57;24.80;;;5.37;;
17347;SDS011;8791;50.876;4.342;2022-11-25T15:17:27;29.70;;;7.60;;
17347;SDS011;8791;50.876;4.342;2022-11-25T15:19:56;32.33;;;6.67;;
17347;SDS011;8791;50.876;4.342;2022-11-25T15:22:25;28.43;;;6.63;;
17347;SDS011;8791;50.876;4.342;2022-11-25T15:24:53;31.37;;;7.03;;
17347;SDS011;8791;50.876;4.342;2022-11-25T15:27:31;26.43;;;5.70;;
17347;SDS011;8791;50.876;4.342;2022-11-25T15:29:58;21.80;;;5.07;;